Time;durP1;ratioP1;P1;durP2;ratioP2;P2;SDS_P1;SDS_P2;PMS_P1;PMS_P2;Temp;Humidity;BMP_temperature;BMP_pressure;BME280_temperature;BME280_humidity;BME280_pressure;Samples;Min_cycle;Max_cycle;Signal;HPM_P1;HPM_P2
2023/07/09 00:01:17;;;;;;;4.35;1.55;;;;;;;19.39;40.44;101869.25;4956736;28;20613;-69
2023/07/09 00:03:44;;;;;;;3.38;1.88;;;;;;;19.32;40.61;101873.22;4963924;28;20062;-70
2023/07/09 00:06:11;;;;;;;4.72;1.77;;;;;;;19.11;40.98;101870.94;4955238;28;20095;-69
2023/07/09 00:08:42;;;;;;;3.75;1.67;;;;;;;19.20;40.87;101864.25;4956939;28;20033;-68
2023/07/09 00:11:07;;;;;;;3.10;1.75;;;;;;;19.17;41.00;101870.59;4957812;28;20045;-69
2023/07/09 00:13:33;;;;;;;5.07;2.13;;;;;;;19.19;41.01;101871.34;4960477;28;20066;-66
2023/07/09 00:16:02;;;;;;;5.78;1.70;;;;;;;19.20;40.82;101872.19;4964328;28;20031;-66
2023/07/09 00:18:28;;;;;;;2.97;2.08;;;;;;;19.12;40.95;101874.44;4956913;28;20047;-66
2023/07/09 00:20:54;;;;;;;6.63;1.58;;;;;;;19.06;41.47;101878.34;4958684;28;20045;-67
2023/07/09 00:23:20;;;;;;;4.82;2.03;;;;;;;19.00;41.49;101874.25;4958865;28;21153;-67
2023/07/09 00:25:47;;;;;;;3.78;2.05;;;;;;;18.93;41.81;101875.56;4958700;28;20030;-67
2023/07/09 00:28:17;;;;;;;3.08;1.83;;;;;;;18.94;41.68;101874.59;4965217;28;20373;-67
2023/07/09 00:30:45;;;;;;;2.53;1.95;;;;;;;18.90;41.50;101870.47;4956589;28;20071;-66
2023/07/09 00:33:14;;;;;;;4.18;1.90;;;;;;;18.87;41.81;101867.94;4960136;28;20648;-67
2023/07/09 00:35:41;;;;;;;4.57;1.83;;;;;;;18.87;41.55;101860.88;4944652;28;20125;-66
2023/07/09 00:38:23;;;;;;;8.13;1.85;;;;;;;18.83;41.82;101866.41;4957199;28;20512;-68
2023/07/09 00:41:17;;;;;;;10.27;2.10;;;;;;;18.74;42.01;101872.25;4957979;28;20034;-68
2023/07/09 00:43:43;;;;;;;3.35;2.42;;;;;;;18.79;41.80;101864.91;4964460;28;20039;-68
2023/07/09 00:46:26;;;;;;;6.40;2.53;;;;;;;18.76;41.71;101860.63;4956275;28;20050;-68
2023/07/09 00:48:57;;;;;;;4.70;2.38;;;;;;;18.75;41.71;101864.22;4957702;28;20696;-69
2023/07/09 00:51:24;;;;;;;3.83;2.75;;;;;;;18.73;41.70;101870.56;4958858;28;20041;-68
2023/07/09 00:53:53;;;;;;;3.03;1.90;;;;;;;18.68;41.98;101863.75;4964494;28;20073;-67
2023/07/09 00:56:37;;;;;;;3.60;2.47;;;;;;;18.59;42.02;101872.22;4956595;28;20153;-69
2023/07/09 00:59:08;;;;;;;4.47;2.58;;;;;;;18.59;42.01;101863.44;4970759;28;20297;-68
2023/07/09 01:01:33;;;;;;;3.00;2.20;;;;;;;18.54;42.55;101861.06;4958052;28;20050;-68
2023/07/09 01:04:03;;;;;;;4.88;2.50;;;;;;;18.34;42.99;101859.56;4960556;28;20508;-67
2023/07/09 01:06:47;;;;;;;4.20;2.33;;;;;;;18.40;42.63;101859.19;4942286;28;20476;-68
2023/07/09 01:09:13;;;;;;;4.50;2.00;;;;;;;18.28;42.91;101857.28;4957454;28;20125;-68
2023/07/09 01:11:39;;;;;;;3.20;1.90;;;;;;;18.30;42.86;101854.53;4956368;28;20235;-69
2023/07/09 01:14:08;;;;;;;4.00;2.42;;;;;;;18.19;43.07;101855.16;4974203;28;20034;-68
2023/07/09 01:16:40;;;;;;;2.65;2.08;;;;;;;18.10;43.49;101845.91;4969316;28;21544;-68
2023/07/09 01:19:06;;;;;;;6.20;2.40;;;;;;;18.14;43.57;101846.56;4973855;28;20031;-68
2023/07/09 01:21:33;;;;;;;5.00;2.03;;;;;;;18.10;43.64;101848.56;4957755;28;20659;-68
2023/07/09 01:24:10;;;;;;;4.63;2.58;;;;;;;18.06;43.75;101845.22;4972941;28;20034;-67
2023/07/09 01:26:38;;;;;;;8.27;2.55;;;;;;;18.01;43.85;101844.63;4953462;28;20040;-67
2023/07/09 01:29:04;;;;;;;4.55;2.08;;;;;;;18.14;43.69;101842.16;4958434;28;20035;-69
2023/07/09 01:31:29;;;;;;;2.38;1.55;;;;;;;18.22;43.43;101839.09;4956386;28;20497;-68
2023/07/09 01:33:55;;;;;;;4.20;2.70;;;;;;;18.13;43.85;101855.47;4955413;28;20065;-67
2023/07/09 01:36:24;;;;;;;3.83;1.90;;;;;;;18.03;44.11;101855.13;4956817;28;20038;-68
2023/07/09 01:38:51;;;;;;;6.25;2.08;;;;;;;18.08;44.08;101862.81;4945257;28;20023;-68
2023/07/09 01:41:17;;;;;;;6.18;2.42;;;;;;;18.06;44.05;101854.94;4956837;28;20480;-68
2023/07/09 01:43:44;;;;;;;2.92;2.67;;;;;;;18.00;44.08;101852.66;4972214;28;20540;-69
2023/07/09 01:46:12;;;;;;;7.20;2.70;;;;;;;17.99;44.27;101853.59;4971766;28;20133;-69
2023/07/09 01:48:40;;;;;;;5.03;2.28;;;;;;;17.87;44.43;101855.13;4955062;28;20049;-69
2023/07/09 01:51:16;;;;;;;4.80;2.90;;;;;;;17.90;44.53;101857.59;4956739;28;20128;-69
2023/07/09 01:53:44;;;;;;;5.93;2.75;;;;;;;18.00;44.44;101857.94;4962089;28;20129;-69
2023/07/09 01:56:10;;;;;;;7.60;2.78;;;;;;;17.89;44.32;101855.88;4975219;28;20500;-69
2023/07/09 01:58:41;;;;;;;4.90;3.05;;;;;;;17.84;44.48;101850.84;4965818;28;20281;-69
2023/07/09 02:01:09;;;;;;;4.07;3.28;;;;;;;17.87;44.42;101860.41;4947662;28;20042;-74
2023/07/09 02:03:35;;;;;;;5.20;2.65;;;;;;;17.78;44.44;101860.91;4959571;28;20034;-75
2023/07/09 02:06:02;;;;;;;3.88;2.45;;;;;;;17.80;44.91;101859.03;4963980;28;20237;-73
2023/07/09 02:08:28;;;;;;;3.60;2.55;;;;;;;17.90;44.61;101848.81;4976507;28;20130;-68
2023/07/09 02:10:54;;;;;;;9.27;2.90;;;;;;;17.90;44.25;101844.38;4974112;28;20559;-71
2023/07/09 02:13:19;;;;;;;3.95;2.90;;;;;;;17.85;44.56;101843.78;4978975;28;20640;-71
2023/07/09 02:15:45;;;;;;;3.45;2.72;;;;;;;17.83;44.78;101854.44;4960634;28;20605;-70
2023/07/09 02:18:12;;;;;;;3.70;2.33;;;;;;;17.79;44.49;101846.78;4944148;28;20484;-71
2023/07/09 02:20:38;;;;;;;5.10;3.47;;;;;;;17.75;44.72;101845.22;4960645;28;20038;-72
2023/07/09 02:23:07;;;;;;;7.70;4.05;;;;;;;17.69;44.64;101838.47;4967225;28;20126;-72
2023/07/09 02:25:33;;;;;;;6.10;3.10;;;;;;;17.71;44.95;101841.91;4959798;28;20034;-73
2023/07/09 02:27:59;;;;;;;4.15;2.58;;;;;;;17.83;44.51;101843.88;4961001;28;20132;-73
2023/07/09 02:30:24;;;;;;;6.22;3.25;;;;;;;17.82;44.74;101838.66;4957797;28;20031;-72
2023/07/09 02:32:50;;;;;;;6.55;2.65;;;;;;;17.85;44.63;101836.72;4976261;28;20054;-73
2023/07/09 02:35:16;;;;;;;4.10;2.47;;;;;;;17.79;44.84;101841.50;4961952;28;20109;-72
2023/07/09 02:37:41;;;;;;;3.55;2.60;;;;;;;17.72;44.75;101835.69;4945384;28;20778;-72
2023/07/09 02:40:09;;;;;;;8.82;3.40;;;;;;;17.67;44.85;101831.56;4959773;28;20031;-72
2023/07/09 02:42:35;;;;;;;4.35;3.10;;;;;;;17.69;45.11;101835.00;4959697;28;20456;-71
2023/07/09 02:45:02;;;;;;;3.97;3.03;;;;;;;17.77;44.70;101823.06;4961993;28;20033;-70
2023/07/09 02:47:30;;;;;;;3.42;3.13;;;;;;;17.75;44.96;101827.56;4943196;28;20129;-70
2023/07/09 02:49:58;;;;;;;6.90;3.28;;;;;;;17.65;45.20;101824.59;4959319;28;20034;-70
2023/07/09 02:52:24;;;;;;;7.22;3.45;;;;;;;17.62;45.41;101830.03;4945847;28;20105;-71
2023/07/09 02:54:49;;;;;;;3.25;2.60;;;;;;;17.61;45.25;101830.97;4974514;28;20030;-72
2023/07/09 02:57:14;;;;;;;5.97;2.88;;;;;;;17.65;45.41;101835.16;4958087;28;20063;-69
2023/07/09 02:59:40;;;;;;;7.75;3.65;;;;;;;17.63;45.18;101829.09;4975149;28;20027;-71
2023/07/09 03:02:06;;;;;;;4.70;3.63;;;;;;;17.61;45.40;101836.28;4958957;28;20034;-70
2023/07/09 03:04:32;;;;;;;5.13;3.35;;;;;;;17.62;45.32;101834.47;4961075;28;20034;-71
2023/07/09 03:06:59;;;;;;;5.07;3.40;;;;;;;17.62;45.13;101839.75;4962054;28;20361;-71
2023/07/09 03:09:25;;;;;;;3.55;3.25;;;;;;;17.55;45.49;101833.94;4946584;28;20042;-70
2023/07/09 03:11:51;;;;;;;9.73;3.33;;;;;;;17.57;45.22;101847.09;4963026;28;20045;-69
2023/07/09 03:14:20;;;;;;;5.45;3.72;;;;;;;17.49;45.35;101844.00;4962624;28;20037;-68
2023/07/09 03:16:45;;;;;;;6.53;3.53;;;;;;;17.52;45.37;101843.84;4960208;28;20039;-69
2023/07/09 03:19:11;;;;;;;6.13;4.85;;;;;;;17.51;45.37;101853.56;4960399;28;20552;-69
2023/07/09 03:21:36;;;;;;;6.03;3.05;;;;;;;17.35;45.88;101858.78;4957337;28;20043;-69
2023/07/09 03:24:02;;;;;;;4.65;3.50;;;;;;;17.57;45.54;101841.81;4943367;28;20478;-70
2023/07/09 03:26:28;;;;;;;9.35;4.38;;;;;;;17.57;45.40;101858.50;4975465;28;20141;-70
2023/07/09 03:28:54;;;;;;;7.80;3.97;;;;;;;17.45;45.88;101861.81;4957927;28;20039;-69
2023/07/09 03:31:20;;;;;;;4.88;3.20;;;;;;;17.58;45.31;101854.94;4959931;28;20043;-70
2023/07/09 03:33:50;;;;;;;4.78;3.88;;;;;;;17.58;45.38;101856.72;4959099;28;20066;-69
2023/07/09 03:36:17;;;;;;;9.52;3.85;;;;;;;17.48;45.60;101859.00;4956665;28;20137;-68
2023/07/09 03:38:42;;;;;;;4.53;3.75;;;;;;;17.48;45.77;101853.72;4958983;28;20046;-68
2023/07/09 03:41:08;;;;;;;4.93;3.38;;;;;;;17.51;45.71;101852.72;4963020;28;20048;-70
2023/07/09 03:43:36;;;;;;;6.75;3.60;;;;;;;17.56;45.49;101851.53;4957724;28;20038;-71
2023/07/09 03:46:01;;;;;;;9.15;4.43;;;;;;;17.47;45.56;101857.28;4961222;28;20038;-67
2023/07/09 03:48:27;;;;;;;6.10;3.80;;;;;;;17.50;45.45;101851.84;4959357;28;20040;-68
2023/07/09 03:50:52;;;;;;;12.68;4.10;;;;;;;17.51;45.75;101850.91;4958867;28;21001;-70
2023/07/09 03:53:18;;;;;;;4.45;3.83;;;;;;;17.54;45.42;101845.47;4958734;28;20547;-70
2023/07/09 03:55:46;;;;;;;8.68;4.40;;;;;;;17.74;44.95;101843.50;4959542;28;20093;-68
2023/07/09 03:58:12;;;;;;;6.38;3.67;;;;;;;17.71;44.86;101843.69;4957551;28;20049;-70
2023/07/09 04:00:37;;;;;;;4.20;3.55;;;;;;;17.91;44.69;101840.78;4964434;28;20026;-72
2023/07/09 04:03:03;;;;;;;4.00;3.50;;;;;;;17.91;44.56;101842.59;4958786;28;20575;-72
2023/07/09 04:05:28;;;;;;;3.70;3.30;;;;;;;17.94;44.56;101845.03;4961367;28;20070;-71
2023/07/09 04:07:54;;;;;;;5.00;3.95;;;;;;;17.98;44.40;101844.81;4956831;28;20140;-73
2023/07/09 04:10:20;;;;;;;5.25;4.40;;;;;;;17.96;44.16;101836.13;4957860;28;20547;-70
2023/07/09 04:12:45;;;;;;;4.53;3.80;;;;;;;18.06;44.08;101829.34;4958000;28;20066;-70
2023/07/09 04:15:15;;;;;;;6.03;3.88;;;;;;;18.10;44.03;101831.84;4960601;28;20060;-72
2023/07/09 04:17:41;;;;;;;3.30;3.05;;;;;;;18.08;44.13;101836.34;4956925;28;20042;-72
2023/07/09 04:20:09;;;;;;;6.10;4.35;;;;;;;18.17;43.68;101835.84;4960506;28;20317;-71
2023/07/09 04:22:36;;;;;;;7.05;4.43;;;;;;;18.20;43.65;101833.88;4952220;28;20034;-72
2023/07/09 04:25:05;;;;;;;7.78;4.32;;;;;;;18.30;43.33;101826.28;4960606;28;20050;-69
2023/07/09 04:27:31;;;;;;;5.40;4.05;;;;;;;18.23;43.33;101828.44;4956453;28;20039;-69
2023/07/09 04:29:56;;;;;;;4.35;3.92;;;;;;;18.24;43.30;101837.22;4958301;28;20545;-68
2023/07/09 04:32:22;;;;;;;4.30;3.90;;;;;;;18.31;43.05;101833.25;4956012;28;20585;-70
2023/07/09 04:34:47;;;;;;;5.22;3.95;;;;;;;18.26;43.36;101837.97;4960230;28;20042;-67
2023/07/09 04:37:13;;;;;;;9.02;4.72;;;;;;;18.37;43.25;101830.28;4959067;28;20034;-70
2023/07/09 04:39:40;;;;;;;4.45;4.05;;;;;;;18.48;42.80;101838.44;4957672;28;20038;-72
2023/07/09 04:42:10;;;;;;;5.57;3.95;;;;;;;18.44;42.83;101833.41;4957392;28;20034;-70
2023/07/09 04:44:35;;;;;;;5.63;5.13;;;;;;;18.43;42.97;101832.56;4953074;28;21001;-71
2023/07/09 04:47:01;;;;;;;5.28;4.13;;;;;;;18.50;42.66;101826.88;4959103;28;20344;-70
2023/07/09 04:49:26;;;;;;;6.22;3.97;;;;;;;18.68;42.57;101828.47;4954931;28;20042;-70
2023/07/09 04:51:52;;;;;;;5.95;4.18;;;;;;;18.82;42.05;101828.47;4957762;28;21717;-71
2023/07/09 04:54:17;;;;;;;3.97;3.67;;;;;;;18.91;41.53;101834.22;4957561;28;20486;-69
2023/07/09 04:56:45;;;;;;;6.32;4.00;;;;;;;19.00;41.63;101831.00;4960687;28;20042;-70
2023/07/09 04:59:11;;;;;;;6.70;3.92;;;;;;;18.92;42.00;101833.25;4976829;28;20033;-71
2023/07/09 05:01:38;;;;;;;7.30;4.55;;;;;;;18.93;41.69;101834.97;4962142;28;20454;-70
2023/07/09 05:04:03;;;;;;;7.35;4.10;;;;;;;19.12;41.59;101835.53;4959596;28;20422;-70
2023/07/09 05:06:29;;;;;;;5.65;3.58;;;;;;;19.48;41.12;101839.53;4955374;28;20054;-69
2023/07/09 05:08:55;;;;;;;9.45;4.32;;;;;;;19.93;40.09;101840.22;4960569;28;20030;-69
2023/07/09 05:11:20;;;;;;;5.80;3.72;;;;;;;20.86;38.56;101841.13;4957698;28;20042;-69
2023/07/09 05:13:46;;;;;;;8.55;3.72;;;;;;;21.42;37.26;101835.47;4975224;28;20030;-69
2023/07/09 05:16:11;;;;;;;9.80;4.80;;;;;;;21.83;36.42;101838.81;4962202;28;20065;-69
2023/07/09 05:18:37;;;;;;;5.25;3.80;;;;;;;22.41;35.64;101845.16;4960049;28;20035;-70
2023/07/09 05:21:03;;;;;;;7.82;4.75;;;;;;;23.00;34.37;101846.88;4960968;28;20034;-68
2023/07/09 05:23:28;;;;;;;5.45;4.50;;;;;;;23.15;34.54;101844.84;4956735;28;20237;-69
2023/07/09 05:25:58;;;;;;;4.78;3.97;;;;;;;23.48;33.94;101845.84;4957659;28;20061;-69
2023/07/09 05:28:25;;;;;;;4.50;4.18;;;;;;;23.78;32.97;101847.84;4955835;28;20057;-69
2023/07/09 05:30:50;;;;;;;4.18;3.83;;;;;;;24.34;32.42;101842.31;4957438;28;20426;-72
2023/07/09 05:33:18;;;;;;;7.28;4.00;;;;;;;24.18;32.26;101842.75;4955489;28;20191;-70
2023/07/09 05:35:44;;;;;;;4.65;4.18;;;;;;;25.00;31.08;101835.91;4957073;28;20039;-70
2023/07/09 05:38:09;;;;;;;8.15;3.88;;;;;;;25.34;30.51;101833.78;4972778;28;20061;-68
2023/07/09 05:40:35;;;;;;;4.85;3.67;;;;;;;25.25;30.53;101837.28;4954768;28;20532;-68
2023/07/09 05:43:00;;;;;;;11.52;3.80;;;;;;;25.19;30.75;101824.44;4958527;28;20393;-68
2023/07/09 05:45:26;;;;;;;5.25;3.15;;;;;;;25.16;31.21;101832.75;4956905;28;20066;-72
2023/07/09 05:47:51;;;;;;;6.18;3.78;;;;;;;25.07;31.11;101828.22;4956158;28;20501;-69
2023/07/09 05:50:17;;;;;;;4.40;4.00;;;;;;;24.78;31.13;101832.38;4955612;28;20840;-69
2023/07/09 05:52:42;;;;;;;5.75;4.22;;;;;;;25.01;31.54;101837.59;4942437;28;20728;-68
2023/07/09 05:55:08;;;;;;;3.97;3.63;;;;;;;25.26;30.67;101830.94;4957058;28;20065;-71
2023/07/09 05:57:34;;;;;;;6.32;4.18;;;;;;;25.22;30.62;101841.09;4952714;28;20058;-69
2023/07/09 06:00:01;;;;;;;5.95;4.25;;;;;;;25.58;30.68;101838.81;4957944;28;20034;-69
2023/07/09 06:02:39;;;;;;;6.10;3.75;;;;;;;25.54;30.33;101836.56;4955230;28;20031;-70
2023/07/09 06:05:09;;;;;;;4.15;3.67;;;;;;;25.28;30.93;101842.34;4940622;28;20042;-69
2023/07/09 06:07:35;;;;;;;5.88;4.40;;;;;;;24.75;31.57;101842.47;4960058;28;21314;-69
2023/07/09 06:10:00;;;;;;;4.20;3.80;;;;;;;23.81;33.04;101843.13;4975368;28;20353;-70
2023/07/09 06:12:26;;;;;;;7.18;3.88;;;;;;;23.86;33.19;101840.09;4955376;28;20145;-71
2023/07/09 06:14:51;;;;;;;5.50;3.33;;;;;;;24.60;32.24;101840.16;4955818;28;20566;-70
2023/07/09 06:17:17;;;;;;;8.85;3.90;;;;;;;24.81;31.24;101836.63;4975464;28;20042;-68
2023/07/09 06:19:43;;;;;;;7.55;3.92;;;;;;;25.33;30.56;101849.97;4956825;28;20034;-69
2023/07/09 06:22:08;;;;;;;5.47;3.45;;;;;;;25.77;30.15;101855.91;4959057;28;20034;-73
2023/07/09 06:24:34;;;;;;;8.02;3.55;;;;;;;25.66;30.01;101854.19;4971490;28;20290;-74
2023/07/09 06:26:59;;;;;;;7.93;3.90;;;;;;;25.82;30.27;101851.84;4965478;28;20054;-73
2023/07/09 06:29:25;;;;;;;6.22;4.78;;;;;;;25.61;30.23;101851.09;4962214;28;20030;-73
2023/07/09 06:31:51;;;;;;;4.05;3.67;;;;;;;25.06;30.90;101846.06;4952810;28;20125;-68
2023/07/09 06:34:16;;;;;;;4.55;3.90;;;;;;;24.28;32.27;101856.22;4958792;28;20381;-67
2023/07/09 06:36:42;;;;;;;6.13;3.92;;;;;;;24.65;31.61;101853.97;4959672;28;20035;-68
2023/07/09 06:39:08;;;;;;;5.85;4.55;;;;;;;25.77;30.05;101851.38;4961363;28;20094;-68
2023/07/09 06:41:38;;;;;;;4.75;3.50;;;;;;;26.39;29.60;101848.50;4958793;28;20251;-70
2023/07/09 06:44:06;;;;;;;4.65;3.75;;;;;;;26.54;28.55;101855.09;4965423;28;20027;-71
2023/07/09 06:46:32;;;;;;;4.15;3.65;;;;;;;27.33;28.10;101856.59;4957466;28;20051;-70
2023/07/09 06:48:57;;;;;;;5.15;3.97;;;;;;;26.89;28.61;101849.13;4941469;28;20077;-70
2023/07/09 06:51:23;;;;;;;4.68;4.28;;;;;;;26.84;28.57;101854.06;4959729;28;20252;-70
2023/07/09 06:53:51;;;;;;;11.73;4.75;;;;;;;26.73;29.10;101853.41;4957241;28;20572;-70
2023/07/09 06:56:17;;;;;;;4.43;4.00;;;;;;;26.57;28.90;101854.81;4949009;28;20039;-70
2023/07/09 06:58:45;;;;;;;4.43;3.83;;;;;;;26.85;28.88;101854.94;4974176;28;20053;-69
2023/07/09 07:01:11;;;;;;;4.25;3.90;;;;;;;26.97;28.64;101856.44;4962817;28;20109;-69
2023/07/09 07:03:37;;;;;;;3.72;3.40;;;;;;;27.47;27.43;101853.44;4960533;28;20104;-71
2023/07/09 07:06:06;;;;;;;4.78;3.60;;;;;;;28.26;26.44;101860.00;4961153;28;20163;-70
2023/07/09 07:08:32;;;;;;;7.53;4.32;;;;;;;27.99;27.09;101865.41;4974612;28;20532;-70
2023/07/09 07:11:03;;;;;;;4.70;4.28;;;;;;;27.55;26.90;101862.56;4963020;28;20030;-71
2023/07/09 07:13:30;;;;;;;8.60;4.38;;;;;;;27.33;27.45;101859.28;4960824;28;20042;-71
2023/07/09 07:15:55;;;;;;;4.68;4.28;;;;;;;27.56;27.23;101864.25;4957792;28;20122;-71
2023/07/09 07:18:21;;;;;;;4.88;4.47;;;;;;;27.70;27.58;101863.78;4960035;28;20088;-70
2023/07/09 07:20:46;;;;;;;8.00;4.15;;;;;;;28.55;26.63;101858.88;4957685;28;20039;-71
2023/07/09 07:23:12;;;;;;;4.22;3.83;;;;;;;29.25;25.76;101868.75;4961494;28;20034;-70
2023/07/09 07:25:37;;;;;;;4.00;3.60;;;;;;;29.81;25.51;101859.16;4955507;28;20591;-70
2023/07/09 07:28:03;;;;;;;7.82;4.10;;;;;;;29.91;24.63;101862.56;4959155;28;20354;-70
2023/07/09 07:30:29;;;;;;;4.32;3.50;;;;;;;29.69;24.37;101868.59;4959043;28;20253;-71
2023/07/09 07:32:54;;;;;;;4.32;3.97;;;;;;;29.20;25.49;101858.47;4954673;28;20046;-70
2023/07/09 07:35:20;;;;;;;3.88;3.58;;;;;;;29.49;24.70;101858.06;4964781;28;20039;-70
2023/07/09 07:37:45;;;;;;;3.95;3.65;;;;;;;30.21;24.20;101862.13;4953625;28;20039;-70
2023/07/09 07:40:11;;;;;;;6.78;3.78;;;;;;;30.29;23.57;101854.88;4958426;28;20595;-70
2023/07/09 07:42:36;;;;;;;4.20;3.80;;;;;;;30.75;23.43;101857.00;4956860;28;20402;-70
2023/07/09 07:45:03;;;;;;;4.45;3.85;;;;;;;30.27;23.43;101867.69;4947751;28;20030;-71
2023/07/09 07:47:29;;;;;;;5.43;3.97;;;;;;;29.98;24.05;101862.75;4973033;28;20042;-71
2023/07/09 07:49:56;;;;;;;6.20;4.68;;;;;;;30.21;23.65;101862.94;4953341;28;21047;-70
2023/07/09 07:52:22;;;;;;;5.68;3.75;;;;;;;30.87;22.64;101858.34;4959813;28;20267;-69
2023/07/09 07:54:48;;;;;;;6.22;3.85;;;;;;;30.47;23.85;101856.53;4941645;28;20066;-70
2023/07/09 07:57:14;;;;;;;7.65;4.30;;;;;;;30.82;22.72;101854.47;4960109;28;20138;-70
2023/07/09 07:59:40;;;;;;;6.72;4.57;;;;;;;29.98;23.64;101858.19;4962626;28;20502;-71
2023/07/09 08:02:10;;;;;;;4.95;3.90;;;;;;;29.96;24.38;101862.91;4972485;28;20035;-71
2023/07/09 08:04:36;;;;;;;5.28;3.72;;;;;;;30.09;24.04;101858.91;4958123;28;20061;-71
2023/07/09 08:07:02;;;;;;;9.27;4.15;;;;;;;30.41;23.86;101857.22;4958745;28;20051;-70
2023/07/09 08:09:29;;;;;;;4.15;3.60;;;;;;;30.88;23.58;101860.03;4955755;28;20038;-71
2023/07/09 08:11:54;;;;;;;4.90;3.53;;;;;;;31.87;23.07;101876.63;4973590;28;20104;-71
2023/07/09 08:14:20;;;;;;;4.10;3.70;;;;;;;32.67;21.85;101864.50;4958431;28;20501;-72
2023/07/09 08:16:46;;;;;;;4.53;4.13;;;;;;;32.10;21.41;101863.16;4952140;28;20034;-72
2023/07/09 08:19:12;;;;;;;4.38;3.97;;;;;;;31.78;21.84;101862.38;4960091;28;20342;-70
2023/07/09 08:21:37;;;;;;;4.05;3.75;;;;;;;31.65;22.49;101853.13;4953563;28;20038;-70
2023/07/09 08:24:04;;;;;;;6.63;4.45;;;;;;;31.30;22.94;101863.44;4966207;28;20061;-71
2023/07/09 08:26:31;;;;;;;5.00;3.15;;;;;;;32.20;22.17;101865.59;4954749;28;20648;-70
2023/07/09 08:28:57;;;;;;;4.88;3.10;;;;;;;33.09;20.68;101859.50;4954442;28;20062;-69
2023/07/09 08:31:22;;;;;;;4.50;3.42;;;;;;;33.64;20.71;101867.06;4957695;28;20592;-72
2023/07/09 08:33:48;;;;;;;7.30;3.35;;;;;;;33.66;20.03;101864.19;4955281;28;20046;-70
2023/07/09 08:36:14;;;;;;;4.35;3.58;;;;;;;33.77;20.55;101869.13;4958511;28;20500;-71
2023/07/09 08:38:40;;;;;;;4.18;3.63;;;;;;;34.49;19.21;101868.09;4940043;28;20036;-71
2023/07/09 08:41:05;;;;;;;4.85;3.72;;;;;;;33.87;20.89;101877.75;4956408;28;24171;-71
2023/07/09 08:43:39;;;;;;;4.30;3.63;;;;;;;33.54;20.46;101863.81;4958421;28;20042;-71
2023/07/09 08:46:26;;;;;;;7.53;4.18;;;;;;;34.05;20.03;101861.03;4955059;28;20030;-72
2023/07/09 08:48:56;;;;;;;4.28;3.95;;;;;;;33.82;20.38;101860.41;4956167;28;20042;-70
2023/07/09 08:51:41;;;;;;;4.93;3.92;;;;;;;33.89;20.37;101864.03;4956127;28;20062;-70
2023/07/09 08:54:31;;;;;;;5.22;3.35;;;;;;;33.59;20.43;101863.25;4955482;28;20022;-70
2023/07/09 08:57:14;;;;;;;4.57;3.95;;;;;;;32.83;21.84;101845.44;4950226;28;20084;-70
2023/07/09 08:59:41;;;;;;;4.88;3.75;;;;;;;32.98;21.35;101841.88;4963955;28;20414;-71
2023/07/09 09:02:22;;;;;;;4.57;3.72;;;;;;;33.16;21.63;101839.59;4949140;28;20055;-70
2023/07/09 09:04:47;;;;;;;;;;;;;;;32.66;22.45;101843.91;4950798;28;20073;-70
2023/07/09 09:07:40;;;;;;;5.53;3.38;;;;;;;33.07;22.41;101839.91;4953213;28;20013;-71
2023/07/09 09:10:37;;;;;;;7.63;3.85;;;;;;;33.02;22.11;101838.59;4948566;28;20464;-70
2023/07/09 09:13:15;;;;;;;5.45;2.97;;;;;;;33.32;21.90;101843.97;4944608;28;20104;-70
2023/07/09 09:15:45;;;;;;;3.65;3.35;;;;;;;33.63;21.10;101843.69;4948606;28;20365;-72
2023/07/09 09:18:26;;;;;;;3.92;3.53;;;;;;;33.50;21.58;101838.13;4930897;28;20375;-71
2023/07/09 09:21:16;;;;;;;4.10;3.58;;;;;;;34.21;21.52;101837.41;4948427;28;20330;-70
2023/07/09 09:23:52;;;;;;;4.32;3.65;;;;;;;32.84;22.42;101844.41;4947685;28;20320;-70
2023/07/09 09:26:24;;;;;;;4.43;4.00;;;;;;;31.26;23.09;101845.91;4948590;28;20549;-70
2023/07/09 09:28:49;;;;;;;3.90;3.33;;;;;;;30.49;24.63;101846.41;4945874;28;20121;-70
2023/07/09 09:31:17;;;;;;;5.00;3.53;;;;;;;30.02;26.03;101850.63;4949674;28;20100;-70
2023/07/09 09:33:46;;;;;;;5.57;3.67;;;;;;;30.93;24.68;101848.69;4944681;28;20030;-71
2023/07/09 09:36:17;;;;;;;6.32;4.22;;;;;;;31.12;24.93;101848.34;4942205;28;20047;-70
2023/07/09 09:38:42;;;;;;;;;;;;;;;31.66;23.55;101852.13;4931419;28;20357;-71
2023/07/09 09:41:26;;;;;;;5.63;3.78;;;;;;;31.81;22.98;101851.19;4927075;28;19929;-70
2023/07/09 09:43:53;;;;;;;3.65;3.05;;;;;;;32.62;22.99;101848.00;4929386;28;20366;-69
2023/07/09 09:46:29;;;;;;;6.30;3.22;;;;;;;32.51;23.95;101840.34;4935662;28;20233;-71
2023/07/09 09:49:01;;;;;;;5.00;4.05;;;;;;;32.70;23.48;101841.66;4935360;28;20491;-71
2023/07/09 09:51:27;;;;;;;4.15;3.17;;;;;;;32.72;22.67;101843.16;4938993;28;20039;-70
2023/07/09 09:53:58;;;;;;;6.43;3.53;;;;;;;32.50;23.15;101836.81;4939916;28;20128;-71
2023/07/09 09:56:29;;;;;;;;;;;;;;;32.00;23.95;101844.47;4939431;28;20070;-71
2023/07/09 09:58:56;;;;;;;6.13;3.50;;;;;;;31.62;24.34;101847.06;4963088;28;19930;-71
2023/07/09 10:01:30;;;;;;;4.57;3.35;;;;;;;31.45;24.99;101845.47;4930033;28;20050;-69
2023/07/09 10:03:59;;;;;;;7.15;3.13;;;;;;;32.29;23.79;101842.88;4947091;28;20105;-70
2023/07/09 10:06:45;;;;;;;5.00;3.50;;;;;;;32.15;24.08;101846.41;4948520;28;20506;-69
2023/07/09 10:09:24;;;;;;;4.43;3.90;;;;;;;32.08;23.50;101837.34;4933406;28;20421;-69
2023/07/09 10:12:27;;;;;;;5.90;3.70;;;;;;;31.59;24.71;101839.34;4934689;28;20043;-71
2023/07/09 10:15:00;;;;;;;5.43;4.20;;;;;;;31.11;24.89;101840.41;4936561;28;20114;-70
2023/07/09 10:17:43;;;;;;;4.80;4.18;;;;;;;30.83;25.23;101840.81;4937382;28;20114;-70
2023/07/09 10:20:20;;;;;;;5.20;3.55;;;;;;;30.82;24.83;101849.91;4952207;28;20039;-69
2023/07/09 10:23:20;;;;;;;4.35;3.95;;;;;;;31.02;24.64;101849.56;4937462;28;20136;-70
2023/07/09 10:26:03;;;;;;;4.22;3.22;;;;;;;31.23;24.74;101851.69;4948806;28;20042;-70
2023/07/09 10:28:40;;;;;;;6.25;5.65;;;;;;;31.77;24.22;101865.25;4938266;28;20027;-69
2023/07/09 10:31:23;;;;;;;4.28;3.88;;;;;;;32.08;23.19;101857.09;4955196;28;20077;-70
2023/07/09 10:34:07;;;;;;;6.47;4.50;;;;;;;32.00;23.96;101859.84;4938320;28;20316;-71
2023/07/09 10:36:56;;;;;;;3.38;3.08;;;;;;;32.02;24.52;101866.75;4943730;28;20055;-70
2023/07/09 10:39:31;;;;;;;4.43;3.88;;;;;;;32.42;23.50;101858.50;4937071;28;20035;-70
2023/07/09 10:42:00;;;;;;;3.55;2.97;;;;;;;32.08;23.63;101856.25;4936547;28;20586;-71
2023/07/09 10:44:39;;;;;;;7.68;3.65;;;;;;;32.05;24.15;101862.00;4966375;28;20027;-70
2023/07/09 10:47:23;;;;;;;5.13;3.83;;;;;;;31.92;22.98;101863.44;4952679;28;20441;-69
2023/07/09 10:49:50;;;;;;;7.03;4.13;;;;;;;31.47;23.57;101862.34;4936017;28;20066;-70
2023/07/09 10:52:24;;;;;;;4.93;3.47;;;;;;;31.50;24.33;101856.63;4936481;28;20042;-72
2023/07/09 10:55:04;;;;;;;3.67;3.25;;;;;;;31.89;25.00;101854.84;4937365;28;20084;-70
2023/07/09 10:57:42;;;;;;;5.35;3.90;;;;;;;31.23;24.90;101855.22;4942172;28;20041;-71
2023/07/09 11:00:17;;;;;;;6.00;3.60;;;;;;;31.84;24.39;101855.38;4955449;28;20097;-69
2023/07/09 11:02:43;;;;;;;5.20;3.25;;;;;;;32.48;24.49;101852.38;4958784;28;20540;-70
2023/07/09 11:05:09;;;;;;;5.82;3.70;;;;;;;32.74;23.72;101851.91;4960695;28;20042;-70
2023/07/09 11:08:05;;;;;;;3.97;3.58;;;;;;;32.79;22.77;101844.09;4956396;28;20382;-70
2023/07/09 11:10:39;;;;;;;4.13;3.47;;;;;;;32.57;23.23;101845.03;4960856;28;20038;-70
2023/07/09 11:13:11;;;;;;;6.07;4.10;;;;;;;32.23;23.46;101844.47;4962953;28;20126;-70
2023/07/09 11:15:41;;;;;;;3.88;3.45;;;;;;;31.90;23.59;101843.03;4957291;28;20039;-70
2023/07/09 11:18:13;;;;;;;3.87;3.57;;;;;;;31.69;23.50;101840.97;4955827;28;20042;-71
2023/07/09 11:20:44;;;;;;;5.40;3.70;;;;;;;31.94;22.96;101844.34;4975599;28;20274;-69
2023/07/09 11:23:24;;;;;;;8.73;3.30;;;;;;;31.82;24.17;101841.22;4959130;28;20038;-70
2023/07/09 11:26:12;;;;;;;4.00;3.30;;;;;;;31.72;23.66;101840.63;4974290;28;20106;-71
2023/07/09 11:28:46;;;;;;;5.13;3.95;;;;;;;32.62;23.36;101845.28;4970186;28;20054;-70
2023/07/09 11:31:35;;;;;;;5.40;3.45;;;;;;;32.35;23.28;101823.22;4959195;28;20513;-70
2023/07/09 11:34:22;;;;;;;4.07;3.72;;;;;;;31.82;22.98;101819.59;4955400;28;20286;-70
2023/07/09 11:37:12;;;;;;;6.80;4.30;;;;;;;32.34;23.35;101813.44;4969416;28;20049;-72